»·PEaware :: N323DM KSNA-L71

N323DM :: KSNA-L71

FLIGHT INFORMATION

Flight Status: Arrived
Operator: Privately registered:
United States
More flights under this callsign
Pilot: Gord H. (12075)
Aircraft: BEECH AIRCRAFT BARON
(BE58)
More flights by this aircraft type
Origin: KSNA John Wayne-Orange Co
United States
Destination: L71 California City Mun
United States
More flights between these airports :: More routes between these airports
Route: +DCT
File this flight plan on PilotEdge
Remarks:
Altitude:
(Current/Filed)
6,500ft
Speed:
(Current/Filed)
170kts
Departed: 30-Aug-18 06:46 PM
Arrived: 30-Aug-18 07:33 PM
Distance/Time
Traveled:
89nm/0:47
Distance/Time
To Go:
Arrived

Flight Plot

Page will automatically refresh every two minutes.

Flight plan parsing failed; only flown route is shown


Map Options




Map Legend


Flown Route
Filed Route
Departure Airport
Arrival Airport
Navaid (VOR, NDB)
Fix

Horizontal Profiles

Position Reports

Time Latitude Longitude Heading Altitude Ground
Speed
30-Aug-18 18:29 33.672482 -117.867193 210 57ft 0kts
30-Aug-18 18:30 33.672482 -117.867193 210 57ft 0kts
30-Aug-18 18:31 33.672482 -117.867193 211 57ft 0kts
30-Aug-18 18:32 33.672482 -117.867193 211 57ft 0kts
30-Aug-18 18:33 33.672482 -117.867193 211 57ft 0kts
30-Aug-18 18:34 33.672482 -117.867193 211 57ft 0kts
30-Aug-18 18:35 33.672482 -117.867193 211 57ft 0kts
30-Aug-18 18:36 33.672482 -117.867193 211 57ft 0kts
30-Aug-18 18:37 33.672482 -117.867193 211 57ft 0kts
30-Aug-18 18:38 33.672482 -117.867193 211 57ft 0kts
30-Aug-18 18:39 33.672482 -117.867193 211 57ft 0kts
30-Aug-18 18:40 33.672482 -117.867193 211 57ft 0kts
30-Aug-18 18:41 33.672482 -117.867193 211 57ft 0kts
30-Aug-18 18:42 33.672482 -117.867193 211 57ft 0kts
30-Aug-18 18:43 33.674049 -117.867135 27 57ft 16kts
30-Aug-18 18:44 33.679678 -117.863555 27 57ft 14kts
30-Aug-18 18:45 33.679982 -117.863649 297 57ft 0kts
30-Aug-18 18:46 33.679914 -117.864316 207 57ft 19kts
30-Aug-18 18:47 33.655505 -117.872908 146 728ft 127kts
30-Aug-18 18:48 33.649378 -117.831971 91 2113ft 127kts
30-Aug-18 18:49 33.648840 -117.786094 91 2407ft 153kts
30-Aug-18 18:50 33.648322 -117.737674 91 2987ft 142kts
30-Aug-18 18:51 33.647879 -117.691610 91 4173ft 136kts
30-Aug-18 18:52 33.671600 -117.668854 345 5215ft 127kts
30-Aug-18 18:54 33.704071 -117.683622 332 6199ft 130kts
30-Aug-18 18:55 33.740966 -117.702265 332 6532ft 163kts
30-Aug-18 18:56 33.784372 -117.724788 332 6524ft 176kts
30-Aug-18 18:57 33.830049 -117.748996 332 6449ft 182kts
30-Aug-18 18:57 33.868239 -117.769535 332 6446ft 182kts
30-Aug-18 18:59 33.921342 -117.800079 330 6441ft 182kts
30-Aug-18 18:59 33.958667 -117.822597 330 6451ft 181kts
30-Aug-18 19:00 34.003745 -117.849523 330 6469ft 181kts
30-Aug-18 19:02 34.056655 -117.880568 330 6485ft 182kts
30-Aug-18 19:02 34.093504 -117.904841 308 6491ft 179kts
30-Aug-18 19:04 34.114891 -117.967637 287 6479ft 178kts
30-Aug-18 19:04 34.129105 -118.014412 287 6470ft 179kts
30-Aug-18 19:05 34.146425 -118.070759 287 6459ft 180kts
30-Aug-18 19:06 34.165354 -118.127015 297 6455ft 183kts
30-Aug-18 19:07 34.191936 -118.179208 298 6456ft 184kts
30-Aug-18 19:08 34.218635 -118.231547 298 6456ft 184kts
30-Aug-18 19:09 34.244958 -118.283304 298 6456ft 185kts
30-Aug-18 19:10 34.278030 -118.328475 331 6466ft 191kts
30-Aug-18 19:11 34.328113 -118.345879 9 6482ft 195kts
30-Aug-18 19:12 34.381357 -118.333498 11 6487ft 197kts
30-Aug-18 19:13 34.434244 -118.321399 10 6496ft 195kts
30-Aug-18 19:14 34.487721 -118.306893 10 6504ft 198kts
30-Aug-18 19:15 34.541005 -118.289777 11 6445ft 200kts
30-Aug-18 19:16 34.593956 -118.276023 3 6431ft 193kts
30-Aug-18 19:17 34.646395 -118.266100 3 6432ft 190kts
30-Aug-18 19:18 34.698566 -118.256217 3 6433ft 189kts
30-Aug-18 19:19 34.750426 -118.246409 3 6433ft 189kts
30-Aug-18 19:20 34.802361 -118.236606 3 6433ft 188kts
30-Aug-18 19:21 34.853679 -118.226948 3 6432ft 188kts
30-Aug-18 19:22 34.905008 -118.217363 3 6468ft 185kts
30-Aug-18 19:23 34.955258 -118.216578 352 6492ft 175kts
30-Aug-18 19:24 35.004509 -118.220780 352 6091ft 180kts
30-Aug-18 19:25 35.054654 -118.221725 11 5713ft 185kts
30-Aug-18 19:26 35.097218 -118.196756 32 5581ft 159kts
30-Aug-18 19:27 35.128932 -118.163097 53 5570ft 154kts
30-Aug-18 19:28 35.148715 -118.115698 70 4983ft 161kts
30-Aug-18 19:29 35.157841 -118.062206 79 4114ft 159kts
30-Aug-18 19:30 35.165652 -118.014971 77 3607ft 117kts
30-Aug-18 19:31 35.171159 -117.974064 102 3495ft 127kts
30-Aug-18 19:32 35.157459 -117.987754 259 2639ft 94kts
30-Aug-18 19:33 35.151757 -118.014621 256 2436ft 62kts
30-Aug-18 19:34 35.149521 -118.022896 166 2436ft 10kts
30-Aug-18 19:35 35.150302 -118.017763 76 2436ft 15kts
30-Aug-18 19:36 35.149756 -118.016371 82 2436ft 0kts
30-Aug-18 19:37 35.149756 -118.016371 82 2436ft 0kts
30-Aug-18 19:38 35.149756 -118.016371 82 2436ft 0kts
30-Aug-18 19:39 35.149756 -118.016371 82 2436ft 0kts
30-Aug-18 19:40 35.149756 -118.016371 82 2436ft 0kts
30-Aug-18 19:41 35.149756 -118.016371 82 2436ft 0kts

Navigation Log

Ident Type
Flight plan parsing failed, navigation log unavailable